sensor_id;sensor_type;location;lat;lon;timestamp;P1;durP1;ratioP1;P2;durP2;ratioP2
69523;SDS011;56723;42.694;23.286;2023-03-23T05:31:42;63.13;;;35.73;;
69523;SDS011;56723;42.694;23.286;2023-03-23T05:34:09;63.80;;;38.87;;
69523;SDS011;56723;42.694;23.286;2023-03-23T05:36:47;54.83;;;37.10;;
69523;SDS011;56723;42.694;23.286;2023-03-23T05:39:26;59.10;;;38.03;;
69523;SDS011;56723;42.694;23.286;2023-03-23T05:42:13;57.67;;;37.00;;
69523;SDS011;56723;42.694;23.286;2023-03-23T05:44:49;59.43;;;38.10;;
69523;SDS011;56723;42.694;23.286;2023-03-23T05:47:16;66.77;;;41.73;;
69523;SDS011;56723;42.694;23.286;2023-03-23T05:49:50;59.47;;;39.53;;
69523;SDS011;56723;42.694;23.286;2023-03-23T05:52:19;58.50;;;38.00;;
69523;SDS011;56723;42.694;23.286;2023-03-23T05:54:47;65.50;;;42.40;;
69523;SDS011;56723;42.694;23.286;2023-03-23T06:21:31;107.13;;;65.23;;
69523;SDS011;56723;42.694;23.286;2023-03-23T06:24:17;93.37;;;62.87;;
69523;SDS011;56723;42.694;23.286;2023-03-23T06:26:44;89.43;;;59.17;;
69523;SDS011;56723;42.694;23.286;2023-03-23T06:29:16;86.80;;;57.63;;
69523;SDS011;56723;42.694;23.286;2023-03-23T06:31:47;80.60;;;53.07;;
69523;SDS011;56723;42.694;23.286;2023-03-23T06:34:19;76.73;;;51.47;;
69523;SDS011;56723;42.694;23.286;2023-03-23T06:36:46;76.83;;;48.47;;
69523;SDS011;56723;42.694;23.286;2023-03-23T06:39:18;82.33;;;51.77;;
69523;SDS011;56723;42.694;23.286;2023-03-23T06:42:11;64.63;;;42.90;;
69523;SDS011;56723;42.694;23.286;2023-03-23T06:44:44;70.63;;;45.60;;
69523;SDS011;56723;42.694;23.286;2023-03-23T06:47:13;71.78;;;47.15;;
69523;SDS011;56723;42.694;23.286;2023-03-23T06:49:45;66.77;;;47.00;;
69523;SDS011;56723;42.694;23.286;2023-03-23T06:52:24;74.88;;;45.92;;
69523;SDS011;56723;42.694;23.286;2023-03-23T06:54:53;64.88;;;42.15;;
69523;SDS011;56723;42.694;23.286;2023-03-23T06:57:22;65.27;;;47.43;;
69523;SDS011;56723;42.694;23.286;2023-03-23T06:59:51;62.45;;;43.40;;
69523;SDS011;56723;42.694;23.286;2023-03-23T07:04:50;58.07;;;39.53;;
69523;SDS011;56723;42.694;23.286;2023-03-23T07:07:20;54.30;;;37.37;;
69523;SDS011;56723;42.694;23.286;2023-03-23T07:09:54;49.47;;;33.50;;
69523;SDS011;56723;42.694;23.286;2023-03-23T07:12:23;44.95;;;31.17;;
69523;SDS011;56723;42.694;23.286;2023-03-23T07:14:51;50.93;;;31.30;;
69523;SDS011;56723;42.694;23.286;2023-03-23T07:17:18;43.67;;;28.50;;
69523;SDS011;56723;42.694;23.286;2023-03-23T07:20:05;42.80;;;29.47;;
69523;SDS011;56723;42.694;23.286;2023-03-23T07:22:33;44.63;;;30.45;;
69523;SDS011;56723;42.694;23.286;2023-03-23T07:25:18;41.03;;;29.33;;
69523;SDS011;56723;42.694;23.286;2023-03-23T07:27:52;39.57;;;28.27;;
69523;SDS011;56723;42.694;23.286;2023-03-23T07:30:20;45.37;;;28.53;;
69523;SDS011;56723;42.694;23.286;2023-03-23T07:32:55;38.50;;;28.43;;
69523;SDS011;56723;42.694;23.286;2023-03-23T07:35:24;40.47;;;26.67;;
69523;SDS011;56723;42.694;23.286;2023-03-23T07:40:32;39.43;;;26.80;;
69523;SDS011;56723;42.694;23.286;2023-03-23T07:43:09;38.30;;;26.80;;
69523;SDS011;56723;42.694;23.286;2023-03-23T07:45:56;36.53;;;26.67;;
69523;SDS011;56723;42.694;23.286;2023-03-23T07:48:40;41.10;;;26.03;;
69523;SDS011;56723;42.694;23.286;2023-03-23T07:51:07;42.42;;;28.90;;
69523;SDS011;56723;42.694;23.286;2023-03-23T07:53:35;40.97;;;29.90;;
69523;SDS011;56723;42.694;23.286;2023-03-23T07:56:19;39.05;;;26.40;;
69523;SDS011;56723;42.694;23.286;2023-03-23T07:59:11;38.58;;;26.60;;
69523;SDS011;56723;42.694;23.286;2023-03-23T08:01:40;40.22;;;26.17;;
69523;SDS011;56723;42.694;23.286;2023-03-23T08:04:29;36.40;;;25.75;;
69523;SDS011;56723;42.694;23.286;2023-03-23T08:07:17;39.40;;;25.08;;
69523;SDS011;56723;42.694;23.286;2023-03-23T08:10:00;33.13;;;23.75;;
69523;SDS011;56723;42.694;23.286;2023-03-23T08:12:50;32.50;;;23.63;;
69523;SDS011;56723;42.694;23.286;2023-03-23T08:15:39;28.33;;;21.30;;
69523;SDS011;56723;42.694;23.286;2023-03-23T08:18:19;35.10;;;22.60;;
69523;SDS011;56723;42.694;23.286;2023-03-23T08:20:52;33.83;;;21.83;;
69523;SDS011;56723;42.694;23.286;2023-03-23T08:23:30;36.83;;;23.42;;
69523;SDS011;56723;42.694;23.286;2023-03-23T08:26:17;24.30;;;19.15;;
69523;SDS011;56723;42.694;23.286;2023-03-23T08:28:59;23.58;;;18.17;;
69523;SDS011;56723;42.694;23.286;2023-03-23T08:31:49;25.02;;;16.23;;
69523;SDS011;56723;42.694;23.286;2023-03-23T08:34:35;21.10;;;14.38;;
69523;SDS011;56723;42.694;23.286;2023-03-23T08:37:10;19.05;;;14.75;;
69523;SDS011;56723;42.694;23.286;2023-03-23T08:39:57;22.85;;;15.73;;
69523;SDS011;56723;42.694;23.286;2023-03-23T08:42:42;22.15;;;15.68;;
69523;SDS011;56723;42.694;23.286;2023-03-23T08:45:30;18.42;;;12.52;;
69523;SDS011;56723;42.694;23.286;2023-03-23T08:48:08;14.57;;;11.55;;
69523;SDS011;56723;42.694;23.286;2023-03-23T08:50:59;18.98;;;13.68;;
69523;SDS011;56723;42.694;23.286;2023-03-23T08:53:47;16.85;;;10.80;;
69523;SDS011;56723;42.694;23.286;2023-03-23T08:56:37;14.38;;;11.07;;
69523;SDS011;56723;42.694;23.286;2023-03-23T08:59:23;13.45;;;9.43;;
69523;SDS011;56723;42.694;23.286;2023-03-23T09:02:10;8.00;;;5.80;;
69523;SDS011;56723;42.694;23.286;2023-03-23T09:04:48;6.40;;;5.32;;
69523;SDS011;56723;42.694;23.286;2023-03-23T09:07:39;9.45;;;7.00;;
69523;SDS011;56723;42.694;23.286;2023-03-23T09:10:08;10.43;;;7.20;;
69523;SDS011;56723;42.694;23.286;2023-03-23T09:12:36;9.77;;;7.43;;
69523;SDS011;56723;42.694;23.286;2023-03-23T09:15:04;7.82;;;6.40;;
69523;SDS011;56723;42.694;23.286;2023-03-23T09:17:36;8.35;;;7.10;;
69523;SDS011;56723;42.694;23.286;2023-03-23T09:20:09;8.65;;;6.78;;
69523;SDS011;56723;42.694;23.286;2023-03-23T09:22:41;11.68;;;8.50;;
69523;SDS011;56723;42.694;23.286;2023-03-23T09:25:14;11.05;;;7.78;;
69523;SDS011;56723;42.694;23.286;2023-03-23T09:27:43;8.38;;;7.22;;
69523;SDS011;56723;42.694;23.286;2023-03-23T09:30:13;10.50;;;7.40;;
69523;SDS011;56723;42.694;23.286;2023-03-23T09:32:41;8.15;;;6.95;;
69523;SDS011;56723;42.694;23.286;2023-03-23T09:37:39;7.07;;;5.63;;
69523;SDS011;56723;42.694;23.286;2023-03-23T09:40:09;10.35;;;6.50;;
69523;SDS011;56723;42.694;23.286;2023-03-23T09:42:45;9.70;;;6.88;;
69523;SDS011;56723;42.694;23.286;2023-03-23T09:50:40;8.45;;;6.38;;
69523;SDS011;56723;42.694;23.286;2023-03-23T09:53:13;11.25;;;7.20;;
69523;SDS011;56723;42.694;23.286;2023-03-23T09:55:45;8.45;;;6.00;;
69523;SDS011;56723;42.694;23.286;2023-03-23T09:58:21;7.57;;;6.72;;
69523;SDS011;56723;42.694;23.286;2023-03-23T10:00:53;8.38;;;6.80;;
69523;SDS011;56723;42.694;23.286;2023-03-23T10:03:25;7.78;;;6.78;;
69523;SDS011;56723;42.694;23.286;2023-03-23T10:05:54;8.27;;;6.03;;
69523;SDS011;56723;42.694;23.286;2023-03-23T10:08:22;7.05;;;6.00;;
69523;SDS011;56723;42.694;23.286;2023-03-23T10:16:32;9.45;;;7.20;;
69523;SDS011;56723;42.694;23.286;2023-03-23T10:22:00;8.23;;;6.15;;
69523;SDS011;56723;42.694;23.286;2023-03-23T10:24:35;9.18;;;6.15;;
69523;SDS011;56723;42.694;23.286;2023-03-23T10:27:19;7.05;;;5.93;;
69523;SDS011;56723;42.694;23.286;2023-03-23T10:30:17;6.50;;;5.15;;
69523;SDS011;56723;42.694;23.286;2023-03-23T10:32:48;7.32;;;5.07;;
69523;SDS011;56723;42.694;23.286;2023-03-23T10:35:26;9.07;;;6.05;;
69523;SDS011;56723;42.694;23.286;2023-03-23T10:38:01;6.22;;;5.22;;
69523;SDS011;56723;42.694;23.286;2023-03-23T10:40:32;7.30;;;5.60;;
69523;SDS011;56723;42.694;23.286;2023-03-23T10:43:02;7.03;;;5.72;;
69523;SDS011;56723;42.694;23.286;2023-03-23T10:45:30;7.97;;;7.05;;
69523;SDS011;56723;42.694;23.286;2023-03-23T10:48:09;8.40;;;6.35;;
69523;SDS011;56723;42.694;23.286;2023-03-23T10:50:42;8.65;;;6.82;;
69523;SDS011;56723;42.694;23.286;2023-03-23T10:53:23;8.52;;;6.93;;
69523;SDS011;56723;42.694;23.286;2023-03-23T10:55:56;8.90;;;7.45;;
69523;SDS011;56723;42.694;23.286;2023-03-23T10:58:29;7.95;;;6.47;;
69523;SDS011;56723;42.694;23.286;2023-03-23T11:01:01;9.43;;;6.72;;
69523;SDS011;56723;42.694;23.286;2023-03-23T11:06:19;7.15;;;6.22;;
69523;SDS011;56723;42.694;23.286;2023-03-23T11:11:26;8.48;;;5.43;;
69523;SDS011;56723;42.694;23.286;2023-03-23T11:14:01;8.00;;;5.47;;
69523;SDS011;56723;42.694;23.286;2023-03-23T11:16:30;6.43;;;5.07;;
69523;SDS011;56723;42.694;23.286;2023-03-23T11:19:21;8.00;;;6.35;;
69523;SDS011;56723;42.694;23.286;2023-03-23T11:22:05;7.40;;;6.07;;
69523;SDS011;56723;42.694;23.286;2023-03-23T11:24:52;9.80;;;6.07;;
69523;SDS011;56723;42.694;23.286;2023-03-23T11:27:26;6.80;;;5.97;;
69523;SDS011;56723;42.694;23.286;2023-03-23T11:30:07;7.38;;;6.55;;
69523;SDS011;56723;42.694;23.286;2023-03-23T11:32:35;8.93;;;7.07;;
69523;SDS011;56723;42.694;23.286;2023-03-23T11:35:04;8.68;;;6.10;;
69523;SDS011;56723;42.694;23.286;2023-03-23T11:37:42;11.20;;;6.05;;
69523;SDS011;56723;42.694;23.286;2023-03-23T11:42:57;6.28;;;5.47;;
69523;SDS011;56723;42.694;23.286;2023-03-23T11:45:41;5.85;;;5.25;;
69523;SDS011;56723;42.694;23.286;2023-03-23T11:51:13;7.86;;;5.86;;
69523;SDS011;56723;42.694;23.286;2023-03-23T11:53:56;5.40;;;4.82;;
69523;SDS011;56723;42.694;23.286;2023-03-23T11:58:54;6.68;;;5.45;;
69523;SDS011;56723;42.694;23.286;2023-03-23T12:15:25;6.95;;;5.53;;
69523;SDS011;56723;42.694;23.286;2023-03-23T12:26:20;6.53;;;4.05;;
69523;SDS011;56723;42.694;23.286;2023-03-23T12:47:46;6.00;;;4.90;;
69523;SDS011;56723;42.694;23.286;2023-03-23T12:55:34;5.88;;;5.28;;
69523;SDS011;56723;42.694;23.286;2023-03-23T12:58:09;4.80;;;4.00;;
69523;SDS011;56723;42.694;23.286;2023-03-23T13:03:44;3.97;;;3.58;;
69523;SDS011;56723;42.694;23.286;2023-03-23T13:06:18;5.38;;;3.47;;
69523;SDS011;56723;42.694;23.286;2023-03-23T13:09:02;4.80;;;3.70;;
69523;SDS011;56723;42.694;23.286;2023-03-23T13:11:37;5.13;;;3.05;;
69523;SDS011;56723;42.694;23.286;2023-03-23T13:25:27;4.88;;;3.88;;
69523;SDS011;56723;42.694;23.286;2023-03-23T13:27:59;6.40;;;4.00;;
69523;SDS011;56723;42.694;23.286;2023-03-23T13:30:28;2.90;;;2.63;;
69523;SDS011;56723;42.694;23.286;2023-03-23T13:33:03;4.00;;;3.27;;
69523;SDS011;56723;42.694;23.286;2023-03-23T13:35:34;3.85;;;2.85;;
69523;SDS011;56723;42.694;23.286;2023-03-23T13:38:18;7.75;;;3.50;;
69523;SDS011;56723;42.694;23.286;2023-03-23T13:40:52;4.20;;;3.53;;
69523;SDS011;56723;42.694;23.286;2023-03-23T13:43:40;4.63;;;2.88;;
69523;SDS011;56723;42.694;23.286;2023-03-23T13:48:49;4.50;;;3.55;;
69523;SDS011;56723;42.694;23.286;2023-03-23T13:51:46;4.13;;;3.60;;
69523;SDS011;56723;42.694;23.286;2023-03-23T13:56:55;4.50;;;3.72;;
69523;SDS011;56723;42.694;23.286;2023-03-23T14:05:26;5.05;;;3.70;;
69523;SDS011;56723;42.694;23.286;2023-03-23T14:07:58;4.32;;;3.38;;
69523;SDS011;56723;42.694;23.286;2023-03-23T14:10:33;4.88;;;3.58;;
69523;SDS011;56723;42.694;23.286;2023-03-23T14:13:03;4.25;;;3.85;;
69523;SDS011;56723;42.694;23.286;2023-03-23T14:15:42;4.50;;;3.65;;
69523;SDS011;56723;42.694;23.286;2023-03-23T14:18:13;4.05;;;3.35;;
69523;SDS011;56723;42.694;23.286;2023-03-23T14:20:42;4.30;;;3.60;;
69523;SDS011;56723;42.694;23.286;2023-03-23T14:23:16;4.35;;;3.88;;
69523;SDS011;56723;42.694;23.286;2023-03-23T14:26:00;4.47;;;3.78;;
69523;SDS011;56723;42.694;23.286;2023-03-23T14:28:38;6.30;;;3.95;;
69523;SDS011;56723;42.694;23.286;2023-03-23T14:33:48;4.65;;;3.80;;
69523;SDS011;56723;42.694;23.286;2023-03-23T14:39:02;5.97;;;3.65;;
69523;SDS011;56723;42.694;23.286;2023-03-23T14:41:38;7.13;;;5.40;;
69523;SDS011;56723;42.694;23.286;2023-03-23T14:44:06;4.20;;;3.88;;
69523;SDS011;56723;42.694;23.286;2023-03-23T14:46:38;5.95;;;4.47;;
69523;SDS011;56723;42.694;23.286;2023-03-23T14:49:05;5.47;;;4.45;;
69523;SDS011;56723;42.694;23.286;2023-03-23T14:51:32;5.38;;;3.53;;
69523;SDS011;56723;42.694;23.286;2023-03-23T14:54:01;7.20;;;3.67;;
69523;SDS011;56723;42.694;23.286;2023-03-23T14:56:33;4.72;;;3.70;;
69523;SDS011;56723;42.694;23.286;2023-03-23T14:59:03;5.55;;;4.13;;
69523;SDS011;56723;42.694;23.286;2023-03-23T15:01:33;5.65;;;4.07;;
69523;SDS011;56723;42.694;23.286;2023-03-23T15:04:04;6.00;;;4.50;;
69523;SDS011;56723;42.694;23.286;2023-03-23T15:06:39;8.07;;;3.83;;
69523;SDS011;56723;42.694;23.286;2023-03-23T15:09:13;11.07;;;3.72;;
69523;SDS011;56723;42.694;23.286;2023-03-23T15:11:43;4.35;;;3.95;;
69523;SDS011;56723;42.694;23.286;2023-03-23T15:14:17;8.30;;;3.90;;
69523;SDS011;56723;42.694;23.286;2023-03-23T15:16:47;5.13;;;3.88;;
69523;SDS011;56723;42.694;23.286;2023-03-23T15:19:22;6.63;;;3.40;;
69523;SDS011;56723;42.694;23.286;2023-03-23T15:21:55;5.55;;;4.03;;
69523;SDS011;56723;42.694;23.286;2023-03-23T15:24:31;4.18;;;3.75;;
69523;SDS011;56723;42.694;23.286;2023-03-23T15:27:23;4.93;;;4.18;;
69523;SDS011;56723;42.694;23.286;2023-03-23T15:29:59;6.55;;;4.07;;
69523;SDS011;56723;42.694;23.286;2023-03-23T15:32:42;9.18;;;5.40;;
69523;SDS011;56723;42.694;23.286;2023-03-23T15:35:21;6.07;;;4.88;;
69523;SDS011;56723;42.694;23.286;2023-03-23T15:37:53;6.53;;;4.60;;
69523;SDS011;56723;42.694;23.286;2023-03-23T15:40:32;5.43;;;4.70;;
69523;SDS011;56723;42.694;23.286;2023-03-23T15:45:33;6.00;;;4.43;;
69523;SDS011;56723;42.694;23.286;2023-03-23T15:48:08;7.03;;;5.20;;
69523;SDS011;56723;42.694;23.286;2023-03-23T15:50:39;7.03;;;5.07;;
69523;SDS011;56723;42.694;23.286;2023-03-23T15:53:14;7.05;;;5.47;;
69523;SDS011;56723;42.694;23.286;2023-03-23T15:55:58;6.28;;;4.97;;
69523;SDS011;56723;42.694;23.286;2023-03-23T15:58:28;7.22;;;5.75;;
69523;SDS011;56723;42.694;23.286;2023-03-23T16:00:56;5.90;;;4.60;;
69523;SDS011;56723;42.694;23.286;2023-03-23T16:03:27;8.63;;;5.18;;
69523;SDS011;56723;42.694;23.286;2023-03-23T16:06:11;7.28;;;4.43;;
69523;SDS011;56723;42.694;23.286;2023-03-23T16:08:54;5.80;;;4.70;;
69523;SDS011;56723;42.694;23.286;2023-03-23T16:11:22;5.15;;;4.65;;
69523;SDS011;56723;42.694;23.286;2023-03-23T16:13:51;8.55;;;5.45;;
69523;SDS011;56723;42.694;23.286;2023-03-23T16:16:22;7.80;;;4.60;;
69523;SDS011;56723;42.694;23.286;2023-03-23T16:18:53;6.00;;;4.53;;
69523;SDS011;56723;42.694;23.286;2023-03-23T16:21:21;6.75;;;4.93;;
69523;SDS011;56723;42.694;23.286;2023-03-23T16:23:49;10.43;;;4.65;;
69523;SDS011;56723;42.694;23.286;2023-03-23T16:26:17;8.10;;;5.40;;
69523;SDS011;56723;42.694;23.286;2023-03-23T16:28:45;5.22;;;4.68;;
69523;SDS011;56723;42.694;23.286;2023-03-23T16:31:12;7.63;;;5.28;;
69523;SDS011;56723;42.694;23.286;2023-03-23T16:33:39;6.25;;;4.43;;
69523;SDS011;56723;42.694;23.286;2023-03-23T16:36:09;5.55;;;4.82;;
69523;SDS011;56723;42.694;23.286;2023-03-23T16:38:40;6.75;;;4.68;;
69523;SDS011;56723;42.694;23.286;2023-03-23T16:41:16;6.63;;;4.50;;
69523;SDS011;56723;42.694;23.286;2023-03-23T16:43:44;5.20;;;4.32;;
69523;SDS011;56723;42.694;23.286;2023-03-23T16:46:11;7.78;;;4.95;;
69523;SDS011;56723;42.694;23.286;2023-03-23T16:48:40;9.52;;;5.45;;
69523;SDS011;56723;42.694;23.286;2023-03-23T16:51:07;8.38;;;4.90;;
69523;SDS011;56723;42.694;23.286;2023-03-23T16:53:36;8.35;;;4.90;;
69523;SDS011;56723;42.694;23.286;2023-03-23T16:56:03;8.77;;;5.20;;
69523;SDS011;56723;42.694;23.286;2023-03-23T16:58:34;7.57;;;4.68;;
69523;SDS011;56723;42.694;23.286;2023-03-23T17:01:01;7.43;;;5.38;;
69523;SDS011;56723;42.694;23.286;2023-03-23T17:03:29;12.02;;;5.97;;
69523;SDS011;56723;42.694;23.286;2023-03-23T17:05:56;8.60;;;5.70;;
69523;SDS011;56723;42.694;23.286;2023-03-23T17:08:25;8.60;;;5.30;;
69523;SDS011;56723;42.694;23.286;2023-03-23T17:10:53;12.18;;;5.47;;
69523;SDS011;56723;42.694;23.286;2023-03-23T17:13:19;13.05;;;5.72;;
69523;SDS011;56723;42.694;23.286;2023-03-23T17:15:50;7.53;;;5.22;;
69523;SDS011;56723;42.694;23.286;2023-03-23T17:18:21;6.80;;;5.13;;
69523;SDS011;56723;42.694;23.286;2023-03-23T17:20:51;8.55;;;5.00;;
69523;SDS011;56723;42.694;23.286;2023-03-23T17:23:19;8.10;;;5.22;;
69523;SDS011;56723;42.694;23.286;2023-03-23T17:25:47;7.40;;;4.80;;
69523;SDS011;56723;42.694;23.286;2023-03-23T17:28:14;8.15;;;4.82;;
69523;SDS011;56723;42.694;23.286;2023-03-23T17:30:43;7.70;;;5.90;;
69523;SDS011;56723;42.694;23.286;2023-03-23T17:33:10;8.25;;;5.28;;
69523;SDS011;56723;42.694;23.286;2023-03-23T17:35:39;10.80;;;5.53;;
69523;SDS011;56723;42.694;23.286;2023-03-23T17:38:07;8.93;;;5.85;;
69523;SDS011;56723;42.694;23.286;2023-03-23T17:40:35;13.52;;;6.60;;
69523;SDS011;56723;42.694;23.286;2023-03-23T17:43:02;9.55;;;7.50;;
69523;SDS011;56723;42.694;23.286;2023-03-23T17:45:29;7.90;;;5.50;;
69523;SDS011;56723;42.694;23.286;2023-03-23T17:47:56;11.85;;;6.20;;
69523;SDS011;56723;42.694;23.286;2023-03-23T17:50:23;10.82;;;5.90;;
69523;SDS011;56723;42.694;23.286;2023-03-23T17:52:51;9.85;;;6.10;;
69523;SDS011;56723;42.694;23.286;2023-03-23T17:55:18;10.98;;;6.13;;
69523;SDS011;56723;42.694;23.286;2023-03-23T17:57:46;10.77;;;5.90;;
69523;SDS011;56723;42.694;23.286;2023-03-23T18:00:14;13.60;;;6.75;;
69523;SDS011;56723;42.694;23.286;2023-03-23T18:05:09;11.50;;;7.10;;
69523;SDS011;56723;42.694;23.286;2023-03-23T18:07:36;11.25;;;6.88;;
69523;SDS011;56723;42.694;23.286;2023-03-23T18:10:04;13.20;;;7.22;;
69523;SDS011;56723;42.694;23.286;2023-03-23T18:12:38;18.45;;;7.55;;
69523;SDS011;56723;42.694;23.286;2023-03-23T18:15:06;10.40;;;7.00;;
69523;SDS011;56723;42.694;23.286;2023-03-23T18:17:34;10.40;;;6.53;;
69523;SDS011;56723;42.694;23.286;2023-03-23T18:20:02;12.02;;;7.50;;
69523;SDS011;56723;42.694;23.286;2023-03-23T18:22:30;10.38;;;7.10;;
69523;SDS011;56723;42.694;23.286;2023-03-23T18:24:57;9.48;;;7.10;;
69523;SDS011;56723;42.694;23.286;2023-03-23T18:27:24;15.75;;;7.72;;
69523;SDS011;56723;42.694;23.286;2023-03-23T18:29:52;12.68;;;9.07;;
69523;SDS011;56723;42.694;23.286;2023-03-23T18:32:19;12.43;;;7.95;;
69523;SDS011;56723;42.694;23.286;2023-03-23T18:34:47;11.80;;;7.03;;
69523;SDS011;56723;42.694;23.286;2023-03-23T18:37:14;11.18;;;6.68;;
69523;SDS011;56723;42.694;23.286;2023-03-23T18:39:44;12.18;;;7.40;;
69523;SDS011;56723;42.694;23.286;2023-03-23T18:42:11;11.38;;;6.90;;
69523;SDS011;56723;42.694;23.286;2023-03-23T18:44:38;13.60;;;6.63;;
69523;SDS011;56723;42.694;23.286;2023-03-23T18:47:08;11.50;;;6.80;;
69523;SDS011;56723;42.694;23.286;2023-03-23T18:49:35;12.48;;;6.80;;
69523;SDS011;56723;42.694;23.286;2023-03-23T18:52:03;12.32;;;7.10;;
69523;SDS011;56723;42.694;23.286;2023-03-23T18:54:30;16.60;;;8.15;;
69523;SDS011;56723;42.694;23.286;2023-03-23T18:57:01;12.40;;;7.72;;
69523;SDS011;56723;42.694;23.286;2023-03-23T18:59:28;11.90;;;7.35;;
69523;SDS011;56723;42.694;23.286;2023-03-23T19:02:00;12.57;;;7.47;;
69523;SDS011;56723;42.694;23.286;2023-03-23T19:04:27;12.52;;;7.90;;
69523;SDS011;56723;42.694;23.286;2023-03-23T19:06:57;11.77;;;7.72;;
69523;SDS011;56723;42.694;23.286;2023-03-23T19:09:25;13.40;;;7.05;;
69523;SDS011;56723;42.694;23.286;2023-03-23T19:11:53;12.15;;;7.47;;
69523;SDS011;56723;42.694;23.286;2023-03-23T19:14:23;12.77;;;7.80;;
69523;SDS011;56723;42.694;23.286;2023-03-23T19:16:50;11.65;;;7.15;;
69523;SDS011;56723;42.694;23.286;2023-03-23T19:19:18;9.98;;;6.93;;
69523;SDS011;56723;42.694;23.286;2023-03-23T19:21:45;11.70;;;7.65;;
69523;SDS011;56723;42.694;23.286;2023-03-23T19:24:14;15.30;;;7.22;;
69523;SDS011;56723;42.694;23.286;2023-03-23T19:26:42;11.50;;;7.78;;
69523;SDS011;56723;42.694;23.286;2023-03-23T19:29:15;11.88;;;6.45;;
69523;SDS011;56723;42.694;23.286;2023-03-23T19:31:55;14.27;;;7.05;;
69523;SDS011;56723;42.694;23.286;2023-03-23T19:34:24;13.50;;;8.75;;
69523;SDS011;56723;42.694;23.286;2023-03-23T19:36:53;13.77;;;9.38;;
69523;SDS011;56723;42.694;23.286;2023-03-23T19:39:31;18.92;;;9.82;;
69523;SDS011;56723;42.694;23.286;2023-03-23T19:41:59;18.50;;;11.23;;
69523;SDS011;56723;42.694;23.286;2023-03-23T19:44:27;21.35;;;13.30;;
69523;SDS011;56723;42.694;23.286;2023-03-23T19:46:54;20.52;;;11.68;;
69523;SDS011;56723;42.694;23.286;2023-03-23T19:49:23;21.30;;;12.52;;
69523;SDS011;56723;42.694;23.286;2023-03-23T19:51:50;17.67;;;11.48;;
69523;SDS011;56723;42.694;23.286;2023-03-23T19:54:35;20.00;;;11.60;;
69523;SDS011;56723;42.694;23.286;2023-03-23T19:57:03;19.35;;;11.55;;
69523;SDS011;56723;42.694;23.286;2023-03-23T19:59:31;18.40;;;12.13;;
69523;SDS011;56723;42.694;23.286;2023-03-23T20:01:59;17.35;;;11.38;;
69523;SDS011;56723;42.694;23.286;2023-03-23T20:04:26;22.15;;;12.35;;
69523;SDS011;56723;42.694;23.286;2023-03-23T20:06:54;18.52;;;12.45;;
69523;SDS011;56723;42.694;23.286;2023-03-23T20:09:22;19.88;;;11.40;;
69523;SDS011;56723;42.694;23.286;2023-03-23T20:11:51;21.55;;;13.20;;
69523;SDS011;56723;42.694;23.286;2023-03-23T20:14:19;22.02;;;15.30;;
69523;SDS011;56723;42.694;23.286;2023-03-23T20:16:46;28.73;;;18.15;;
69523;SDS011;56723;42.694;23.286;2023-03-23T20:19:13;23.65;;;14.88;;
69523;SDS011;56723;42.694;23.286;2023-03-23T20:21:40;25.10;;;15.20;;
69523;SDS011;56723;42.694;23.286;2023-03-23T20:24:11;21.08;;;15.07;;
69523;SDS011;56723;42.694;23.286;2023-03-23T20:26:40;18.20;;;12.25;;
69523;SDS011;56723;42.694;23.286;2023-03-23T20:29:09;20.40;;;11.97;;
69523;SDS011;56723;42.694;23.286;2023-03-23T20:31:37;19.67;;;11.60;;
69523;SDS011;56723;42.694;23.286;2023-03-23T20:34:07;22.70;;;13.90;;
69523;SDS011;56723;42.694;23.286;2023-03-23T20:36:37;20.30;;;12.27;;
69523;SDS011;56723;42.694;23.286;2023-03-23T20:39:09;23.87;;;14.53;;
69523;SDS011;56723;42.694;23.286;2023-03-23T20:41:38;20.83;;;12.70;;
69523;SDS011;56723;42.694;23.286;2023-03-23T20:44:07;24.20;;;14.97;;
69523;SDS011;56723;42.694;23.286;2023-03-23T20:46:43;24.80;;;15.10;;
69523;SDS011;56723;42.694;23.286;2023-03-23T20:49:11;24.17;;;15.70;;
69523;SDS011;56723;42.694;23.286;2023-03-23T20:51:38;29.30;;;16.07;;
69523;SDS011;56723;42.694;23.286;2023-03-23T20:54:06;27.60;;;17.03;;
69523;SDS011;56723;42.694;23.286;2023-03-23T20:56:33;28.37;;;17.33;;
69523;SDS011;56723;42.694;23.286;2023-03-23T20:59:00;40.50;;;18.35;;
69523;SDS011;56723;42.694;23.286;2023-03-23T21:01:28;34.20;;;20.07;;
69523;SDS011;56723;42.694;23.286;2023-03-23T21:03:58;30.00;;;16.20;;
69523;SDS011;56723;42.694;23.286;2023-03-23T21:06:40;32.30;;;18.30;;
69523;SDS011;56723;42.694;23.286;2023-03-23T21:09:08;30.60;;;19.13;;
69523;SDS011;56723;42.694;23.286;2023-03-23T21:11:35;38.23;;;20.27;;
69523;SDS011;56723;42.694;23.286;2023-03-23T21:14:03;36.17;;;21.63;;
69523;SDS011;56723;42.694;23.286;2023-03-23T21:16:31;36.67;;;21.67;;
69523;SDS011;56723;42.694;23.286;2023-03-23T21:18:58;34.00;;;21.17;;
69523;SDS011;56723;42.694;23.286;2023-03-23T21:21:26;36.37;;;20.73;;
69523;SDS011;56723;42.694;23.286;2023-03-23T21:23:53;44.80;;;24.67;;
69523;SDS011;56723;42.694;23.286;2023-03-23T21:26:24;33.65;;;20.27;;
69523;SDS011;56723;42.694;23.286;2023-03-23T21:28:53;26.47;;;15.63;;
69523;SDS011;56723;42.694;23.286;2023-03-23T21:31:26;28.17;;;17.13;;
69523;SDS011;56723;42.694;23.286;2023-03-23T21:33:58;22.70;;;14.77;;
69523;SDS011;56723;42.694;23.286;2023-03-23T21:36:26;28.90;;;16.37;;
69523;SDS011;56723;42.694;23.286;2023-03-23T21:38:54;27.70;;;14.87;;
69523;SDS011;56723;42.694;23.286;2023-03-23T21:41:22;26.23;;;14.70;;
69523;SDS011;56723;42.694;23.286;2023-03-23T21:43:49;24.40;;;15.70;;
69523;SDS011;56723;42.694;23.286;2023-03-23T21:46:17;27.80;;;14.53;;
69523;SDS011;56723;42.694;23.286;2023-03-23T21:48:45;24.43;;;14.40;;
69523;SDS011;56723;42.694;23.286;2023-03-23T21:51:18;23.90;;;15.30;;
69523;SDS011;56723;42.694;23.286;2023-03-23T21:53:48;20.77;;;14.80;;
69523;SDS011;56723;42.694;23.286;2023-03-23T21:56:17;25.63;;;14.30;;
69523;SDS011;56723;42.694;23.286;2023-03-23T21:58:45;23.73;;;14.73;;
69523;SDS011;56723;42.694;23.286;2023-03-23T22:01:13;25.73;;;14.70;;
69523;SDS011;56723;42.694;23.286;2023-03-23T22:03:41;23.52;;;15.10;;
69523;SDS011;56723;42.694;23.286;2023-03-23T22:06:11;24.43;;;16.40;;
69523;SDS011;56723;42.694;23.286;2023-03-23T22:08:41;24.27;;;15.00;;
69523;SDS011;56723;42.694;23.286;2023-03-23T22:11:11;26.35;;;15.57;;
69523;SDS011;56723;42.694;23.286;2023-03-23T22:13:45;24.40;;;14.57;;
69523;SDS011;56723;42.694;23.286;2023-03-23T22:16:15;24.23;;;14.48;;
69523;SDS011;56723;42.694;23.286;2023-03-23T22:18:46;27.53;;;16.57;;
69523;SDS011;56723;42.694;23.286;2023-03-23T22:21:14;33.17;;;19.77;;
69523;SDS011;56723;42.694;23.286;2023-03-23T22:23:43;28.73;;;17.90;;
69523;SDS011;56723;42.694;23.286;2023-03-23T22:26:11;33.73;;;16.27;;
69523;SDS011;56723;42.694;23.286;2023-03-23T22:28:40;34.30;;;17.27;;
69523;SDS011;56723;42.694;23.286;2023-03-23T22:31:16;36.20;;;21.08;;
69523;SDS011;56723;42.694;23.286;2023-03-23T22:33:48;42.38;;;22.63;;
69523;SDS011;56723;42.694;23.286;2023-03-23T22:36:16;47.78;;;27.02;;
69523;SDS011;56723;42.694;23.286;2023-03-23T22:38:44;40.53;;;21.23;;
69523;SDS011;56723;42.694;23.286;2023-03-23T22:41:17;45.63;;;25.33;;
69523;SDS011;56723;42.694;23.286;2023-03-23T22:43:46;45.63;;;26.30;;